Time;durP1;ratioP1;P1;durP2;ratioP2;P2;SDS_P1;SDS_P2;PMS_P1;PMS_P2;Temp;Humidity;BMP_temperature;BMP_pressure;BME280_temperature;BME280_humidity;BME280_pressure;Samples;Min_cycle;Max_cycle;Signal;HPM_P1;HPM_P2
2022/06/21 00:02:07;;;;;;;5.10;2.15;;;15.00;99.90;;;15.19;76.32;101015.56;5069301;29;20056;-74
2022/06/21 00:04:40;;;;;;;2.92;2.10;;;15.00;99.90;;;15.15;76.51;101024.25;5069175;29;20052;-74
2022/06/21 00:07:21;;;;;;;2.60;1.95;;;14.90;99.90;;;15.12;76.53;101024.16;5069128;29;20049;-75
2022/06/21 00:09:54;;;;;;;3.33;2.20;;;14.90;99.90;;;15.09;76.68;101025.00;5069660;29;20569;-75
2022/06/21 00:12:27;;;;;;;3.70;2.30;;;14.80;99.90;;;15.07;76.66;101020.59;5069353;29;20387;-74
2022/06/21 00:14:59;;;;;;;4.05;2.17;;;14.80;99.90;;;15.06;76.66;101017.09;5069268;29;20049;-76
2022/06/21 00:17:31;;;;;;;2.83;1.90;;;14.80;99.90;;;15.04;76.98;101028.38;5068974;29;20059;-75
2022/06/21 00:20:04;;;;;;;3.55;1.98;;;14.80;99.90;;;15.01;77.43;101028.34;5069106;29;20505;-75
2022/06/21 00:22:38;;;;;;;3.67;1.95;;;14.80;99.90;;;14.95;77.57;101028.22;5069380;29;20083;-74
2022/06/21 00:25:18;;;;;;;4.15;1.90;;;14.70;99.90;;;14.89;77.77;101021.97;5069214;29;20498;-75
2022/06/21 00:27:51;;;;;;;3.88;2.30;;;14.70;99.90;;;14.83;78.30;101031.47;5069084;29;20116;-77
2022/06/21 00:30:24;;;;;;;2.63;1.95;;;14.60;99.90;;;14.77;78.28;101023.44;5068916;29;20066;-75
2022/06/21 00:32:57;;;;;;;3.20;1.75;;;14.60;99.90;;;14.73;78.71;101035.59;5069054;29;20496;-74
2022/06/21 00:35:29;;;;;;;3.67;1.80;;;14.50;99.90;;;14.71;78.25;101032.06;5068943;29;20406;-74
2022/06/21 00:38:03;;;;;;;3.05;2.30;;;14.50;99.90;;;14.67;77.90;101032.88;5068815;29;20053;-74
2022/06/21 00:40:35;;;;;;;4.40;2.00;;;14.50;99.90;;;14.64;77.18;101024.94;5068448;29;20259;-74
2022/06/21 00:43:14;;;;;;;4.60;1.98;;;14.40;99.90;;;14.60;76.34;101018.72;5069121;29;20052;-76
2022/06/21 00:45:49;;;;;;;4.28;1.92;;;14.40;99.90;;;14.58;76.28;101016.91;5067506;29;20053;-76
2022/06/21 00:48:28;;;;;;;5.28;2.08;;;14.40;99.90;;;14.54;76.71;101022.94;5068792;29;20132;-76
2022/06/21 00:51:08;;;;;;;4.65;1.95;;;14.30;99.90;;;14.48;77.23;101020.22;5068685;29;20067;-75
2022/06/21 00:53:49;;;;;;;4.00;2.00;;;14.30;99.90;;;14.43;77.44;101029.66;5068859;29;20089;-76
2022/06/21 00:56:25;;;;;;;4.82;2.25;;;14.20;99.90;;;14.43;77.18;101017.44;5068274;29;20053;-74
2022/06/21 00:58:57;;;;;;;3.08;2.13;;;14.20;99.90;;;14.45;77.04;101012.22;5068658;29;20052;-75
2022/06/21 01:01:33;;;;;;;2.88;2.00;;;14.30;99.90;;;14.48;77.36;101018.47;5067714;29;20060;-76
2022/06/21 01:04:16;;;;;;;3.58;2.03;;;14.30;99.90;;;14.45;77.23;101009.59;5068491;29;20060;-76
2022/06/21 01:06:52;;;;;;;3.53;2.00;;;14.20;99.90;;;14.42;77.65;101012.16;5068287;29;20053;-75
2022/06/21 01:09:32;;;;;;;3.58;1.77;;;14.20;99.90;;;14.38;77.81;101005.94;5068360;29;20501;-75
2022/06/21 01:12:10;;;;;;;4.45;2.35;;;14.20;99.90;;;14.33;78.47;101003.22;5068240;29;20139;-75
2022/06/21 01:14:49;;;;;;;2.90;2.00;;;14.10;99.90;;;14.29;78.50;101001.41;5068180;29;20052;-76
2022/06/21 01:17:21;;;;;;;2.92;2.05;;;14.10;99.90;;;14.26;79.11;101011.78;5067815;29;20056;-76
2022/06/21 01:20:00;;;;;;;6.70;2.20;;;14.10;99.90;;;14.26;79.33;101010.91;5068142;29;20521;-74
2022/06/21 01:22:42;;;;;;;4.00;2.03;;;14.10;99.90;;;14.27;79.25;101013.56;5068023;29;20055;-76
2022/06/21 01:25:31;;;;;;;4.90;2.50;;;14.10;99.90;;;14.25;79.38;101004.78;5068027;29;20399;-75
2022/06/21 01:28:05;;;;;;;5.70;2.50;;;14.10;99.90;;;14.21;79.04;101002.94;5067922;29;20075;-75
2022/06/21 01:30:39;;;;;;;4.85;2.83;;;14.00;99.90;;;14.19;78.76;101009.88;5067891;29;20133;-74
2022/06/21 01:33:14;;;;;;;6.43;3.00;;;14.00;99.90;;;14.10;77.67;100994.84;5067432;29;20052;-76
2022/06/21 01:35:53;;;;;;;6.85;2.90;;;14.00;99.90;;;14.05;77.77;101000.81;5067588;29;20053;-76
2022/06/21 01:38:33;;;;;;;4.00;2.65;;;13.90;99.90;;;14.02;77.88;101008.63;5067321;29;20143;-75
2022/06/21 01:41:09;;;;;;;2.92;2.22;;;13.90;99.90;;;14.01;77.72;100999.84;5067679;29;20052;-76
2022/06/21 01:43:48;;;;;;;7.43;2.72;;;13.80;99.90;;;13.99;78.27;101005.91;5067610;29;20049;-74
2022/06/21 01:46:31;;;;;;;6.07;2.53;;;13.80;99.90;;;13.95;78.55;101004.03;5067716;29;20061;-75
2022/06/21 01:49:08;;;;;;;4.47;2.28;;;13.80;99.90;;;13.93;78.79;100992.66;5067454;29;20135;-75
2022/06/21 01:51:44;;;;;;;3.33;2.40;;;13.80;99.90;;;13.93;79.17;100984.78;5067509;29;20673;-74
2022/06/21 01:54:21;;;;;;;4.15;2.40;;;13.80;99.90;;;13.88;79.18;100986.41;5067051;29;20056;-75
2022/06/21 01:56:54;;;;;;;6.47;2.30;;;13.70;99.90;;;13.84;79.52;100991.59;5067259;29;20387;-74
2022/06/21 01:59:34;;;;;;;4.45;2.35;;;13.70;99.90;;;13.81;79.49;100999.34;5067255;29;20075;-75
2022/06/21 02:02:12;;;;;;;3.88;2.13;;;13.60;99.90;;;13.76;79.98;100998.38;5066960;29;20054;-74
2022/06/21 02:04:53;;;;;;;4.22;2.33;;;13.60;99.90;;;13.72;80.29;100996.50;5067332;29;20060;-75
2022/06/21 02:07:31;;;;;;;6.82;2.35;;;13.60;99.90;;;13.71;80.01;100980.78;5067182;29;20409;-74
2022/06/21 02:10:16;;;;;;;4.85;2.65;;;13.50;99.90;;;13.70;79.99;100987.75;5066583;29;20138;-74
2022/06/21 02:12:53;;;;;;;4.93;2.25;;;13.50;99.90;;;13.69;79.75;100995.53;5067181;29;20052;-75
2022/06/21 02:15:36;;;;;;;2.72;2.00;;;13.50;99.90;;;13.68;79.92;100988.53;5067020;29;20498;-76
2022/06/21 02:18:13;;;;;;;4.20;2.33;;;13.50;99.90;;;13.67;80.09;100977.16;5067110;29;20053;-76
2022/06/21 02:20:50;;;;;;;5.20;2.78;;;13.50;99.90;;;13.66;79.91;100975.41;5066940;29;20152;-77
2022/06/21 02:23:22;;;;;;;4.82;2.33;;;13.50;99.90;;;13.64;79.74;100965.75;5066912;29;20410;-76
2022/06/21 02:25:57;;;;;;;3.78;2.20;;;13.50;99.90;;;13.63;79.76;100975.34;5066951;29;20403;-75
2022/06/21 02:28:29;;;;;;;3.47;2.20;;;13.50;99.90;;;13.61;79.88;100971.78;5066752;29;20140;-76
2022/06/21 02:31:03;;;;;;;2.42;2.22;;;13.40;99.90;;;13.58;79.52;100976.94;5066712;29;20139;-75
2022/06/21 02:33:35;;;;;;;3.35;2.17;;;13.40;99.90;;;13.56;79.63;100981.25;5066805;29;20500;-75
2022/06/21 02:36:13;;;;;;;4.38;2.30;;;13.40;99.90;;;13.54;79.85;100991.69;5066874;29;20075;-75
2022/06/21 02:38:50;;;;;;;6.80;2.88;;;13.40;99.90;;;13.47;79.95;100984.53;5066769;29;20076;-76
2022/06/21 02:41:26;;;;;;;5.22;2.88;;;13.40;99.90;;;13.38;79.52;100975.56;5066760;29;20505;-74
2022/06/21 02:44:03;;;;;;;5.57;2.80;;;13.30;99.90;;;13.29;79.82;100974.44;5066531;29;20074;-75
2022/06/21 02:46:41;;;;;;;3.78;2.17;;;13.20;99.90;;;13.26;80.26;100974.38;5066565;29;20063;-75
2022/06/21 02:49:20;;;;;;;5.97;2.75;;;13.10;99.90;;;13.25;80.12;100967.38;5066712;29;20052;-74
2022/06/21 02:51:57;;;;;;;5.22;2.80;;;13.10;99.90;;;13.23;80.37;100969.03;5066198;29;20048;-76
2022/06/21 02:54:36;;;;;;;4.82;2.33;;;13.10;99.90;;;13.24;80.53;100965.59;5066461;29;20490;-74
2022/06/21 02:57:12;;;;;;;3.92;2.38;;;13.10;99.90;;;13.24;80.40;100964.72;5066433;29;20140;-75
2022/06/21 02:59:46;;;;;;;3.92;2.33;;;13.10;99.90;;;13.23;80.84;100965.53;5066563;29;20052;-74
2022/06/21 03:02:24;;;;;;;5.40;2.75;;;13.10;99.90;;;13.23;80.97;100961.19;5066013;29;20057;-74
2022/06/21 03:05:01;;;;;;;4.57;2.45;;;13.10;99.90;;;13.20;81.29;100955.88;5066430;29;20095;-74
2022/06/21 03:07:37;;;;;;;4.57;2.28;;;13.10;99.90;;;13.20;81.58;100957.59;5066281;29;20056;-75
2022/06/21 03:10:19;;;;;;;5.07;2.50;;;13.10;99.90;;;13.16;81.62;100951.38;5065681;29;20132;-74
2022/06/21 03:13:03;;;;;;;6.95;2.90;;;13.00;99.90;;;13.14;82.65;100950.44;5066352;29;20058;-75
2022/06/21 03:15:35;;;;;;;6.00;2.63;;;13.00;99.90;;;13.16;82.68;100951.38;5066396;29;20405;-74
2022/06/21 03:18:14;;;;;;;5.68;3.10;;;13.00;99.90;;;13.09;82.21;100954.66;5066043;29;20052;-77
2022/06/21 03:20:48;;;;;;;6.88;3.15;;;13.00;99.90;;;13.04;82.35;100943.22;5066148;29;20441;-75
2022/06/21 03:23:21;;;;;;;4.43;2.47;;;13.00;99.90;;;13.05;82.42;100955.44;5066197;29;20143;-75
2022/06/21 03:25:59;;;;;;;4.50;2.50;;;12.90;99.90;;;13.06;82.40;100954.59;5065892;29;20055;-74
2022/06/21 03:28:34;;;;;;;6.13;2.25;;;13.00;99.90;;;13.08;82.10;100957.25;5066221;29;20055;-75
2022/06/21 03:31:13;;;;;;;4.32;2.20;;;12.90;99.90;;;13.09;82.35;100952.06;5065966;29;20414;-75
2022/06/21 03:33:50;;;;;;;5.25;3.05;;;13.00;99.90;;;13.08;82.18;100958.13;5065786;29;20088;-76
2022/06/21 03:36:25;;;;;;;6.15;2.80;;;12.90;99.90;;;13.02;82.05;100960.59;5065779;29;20063;-75
2022/06/21 03:39:03;;;;;;;6.20;3.10;;;12.90;99.90;;;12.97;81.89;100964.78;5065700;29;20147;-74
2022/06/21 03:44:31;;;;;;;4.60;2.53;;;12.90;99.90;;;12.96;81.80;100968.25;5065439;29;20192;-75
2022/06/21 03:47:10;;;;;;;4.25;2.20;;;12.90;99.90;;;12.94;82.45;100965.59;5065717;29;20057;-76
2022/06/21 03:49:50;;;;;;;4.45;2.50;;;12.90;99.90;;;12.95;82.34;100975.22;5065894;29;20052;-75
2022/06/21 03:52:44;;;;;;;4.95;2.80;;;12.80;99.90;;;12.99;82.83;100978.81;5065964;29;20113;-74
2022/06/21 03:55:35;;;;;;;3.60;2.47;;;12.90;99.90;;;13.02;82.88;100981.53;5066257;29;20079;-75
2022/06/21 03:58:16;;;;;;;5.57;2.97;;;12.90;99.90;;;12.98;82.38;100972.72;5065685;29;20061;-74
2022/06/21 04:00:54;;;;;;;5.03;2.35;;;12.90;99.90;;;13.00;82.60;100976.25;5065617;29;20429;-75
2022/06/21 04:03:32;;;;;;;4.80;2.85;;;12.90;99.90;;;13.03;82.49;100985.91;5065837;29;20053;-74
2022/06/21 04:06:13;;;;;;;3.63;2.40;;;12.90;99.90;;;13.04;82.81;100988.59;5065866;29;20056;-76
2022/06/21 04:08:51;;;;;;;4.60;2.45;;;12.90;99.90;;;13.04;82.69;100988.59;5065467;29;20057;-74
2022/06/21 04:11:30;;;;;;;4.80;2.15;;;12.90;99.90;;;13.06;82.98;100991.25;5065425;29;20056;-74
2022/06/21 04:14:12;;;;;;;4.72;2.40;;;12.90;99.90;;;13.07;83.35;100993.00;5065838;29;20056;-75
2022/06/21 04:16:52;;;;;;;7.07;2.50;;;12.90;99.90;;;13.08;83.18;100989.53;5066144;29;20057;-75
2022/06/21 04:19:31;;;;;;;5.50;2.83;;;12.90;99.90;;;13.10;83.29;100995.69;5065739;29;20483;-74
2022/06/21 04:22:11;;;;;;;5.07;2.58;;;13.00;99.90;;;13.12;83.28;100990.53;5068161;29;20053;-74
2022/06/21 04:24:51;;;;;;;3.88;2.40;;;13.00;99.90;;;13.12;83.06;100994.03;5068966;29;20056;-75
2022/06/21 04:27:30;;;;;;;4.50;2.60;;;13.00;99.90;;;13.16;83.28;101002.84;5068906;29;20056;-75
2022/06/21 04:30:07;;;;;;;5.80;2.72;;;13.00;99.90;;;13.16;82.67;100993.25;5069027;29;20134;-75
2022/06/21 04:32:45;;;;;;;4.60;2.50;;;13.10;99.90;;;13.13;82.75;100987.94;5069075;29;20064;-74
2022/06/21 04:35:23;;;;;;;7.47;3.15;;;13.00;99.90;;;13.10;82.59;100987.84;5068922;29;20049;-76
2022/06/21 04:38:04;;;;;;;4.60;3.00;;;13.00;99.90;;;13.06;82.66;100980.78;5069240;29;20056;-75
2022/06/21 04:40:40;;;;;;;3.83;2.42;;;13.00;99.90;;;13.06;82.71;100975.53;5068989;29;20410;-74
2022/06/21 04:43:19;;;;;;;7.03;2.80;;;13.00;99.90;;;13.12;83.11;100967.84;5068549;29;20052;-75
2022/06/21 04:45:57;;;;;;;4.15;2.55;;;13.00;99.90;;;13.24;83.42;100968.22;5068567;29;20137;-75
2022/06/21 04:48:38;;;;;;;3.13;2.10;;;13.10;99.90;;;13.46;83.75;100966.16;5068862;29;20053;-74
2022/06/21 04:51:17;;;;;;;6.63;2.85;;;13.30;99.90;;;13.71;83.64;100965.94;5069054;29;20048;-75
2022/06/21 04:53:58;;;;;;;6.38;2.95;;;13.50;99.90;;;14.08;83.61;100957.22;5068669;29;20055;-74
2022/06/21 04:56:39;;;;;;;5.25;2.95;;;13.80;99.90;;;14.47;81.46;100937.97;5068549;29;20053;-76
2022/06/21 04:59:18;;;;;;;4.65;2.75;;;14.20;99.90;;;14.89;78.88;100948.47;5068567;29;20144;-74
2022/06/21 05:01:50;;;;;;;3.90;2.63;;;14.60;99.90;;;15.25;76.70;100951.75;5129066;23;20451;-68
2022/06/21 05:04:31;;;;;;;3.53;2.22;;;15.00;99.90;;;15.52;74.69;100949.66;5053922;29;20049;-67
2022/06/21 05:07:08;;;;;;;6.07;2.30;;;15.30;99.90;;;15.73;72.96;100957.91;5062431;29;20053;-68
2022/06/21 05:09:42;;;;;;;4.20;2.45;;;15.50;99.90;;;15.93;71.94;100955.59;5060560;29;20101;-69
2022/06/21 05:12:30;;;;;;;4.28;2.45;;;15.70;99.90;;;16.22;70.83;100961.28;5048887;29;20076;-71
2022/06/21 05:15:10;;;;;;;4.78;2.63;;;15.90;99.90;;;16.38;69.13;100961.53;5048892;29;20053;-72
2022/06/21 05:17:46;;;;;;;7.95;2.70;;;16.10;99.90;;;16.46;68.47;100949.34;5048846;29;20060;-69
2022/06/21 05:20:25;;;;;;;5.13;2.63;;;16.20;99.90;;;16.64;67.73;100951.34;5048700;29;20045;-71
2022/06/21 05:23:04;;;;;;;2.85;2.17;;;16.30;99.90;;;16.69;67.19;100957.53;5049012;29;20053;-69
2022/06/21 05:25:42;;;;;;;4.05;2.33;;;16.40;99.90;;;16.75;67.16;100968.16;5048696;29;20545;-70
2022/06/21 05:28:23;;;;;;;4.63;2.10;;;16.50;99.90;;;16.89;66.57;100961.34;5048304;29;20067;-72
2022/06/21 05:31:01;;;;;;;4.10;2.42;;;16.60;99.90;;;17.15;65.72;100972.16;5047723;29;20056;-70
2022/06/21 05:33:38;;;;;;;3.53;2.33;;;16.80;99.90;;;17.38;65.12;100975.03;5048554;29;20073;-69
2022/06/21 05:36:17;;;;;;;4.18;2.10;;;17.00;99.90;;;17.51;63.82;100986.56;5048219;29;20063;-71
2022/06/21 05:38:54;;;;;;;4.10;1.90;;;17.10;99.20;;;17.77;63.59;100992.09;5048116;29;20053;-70
2022/06/21 05:41:32;;;;;;;4.35;2.20;;;17.30;99.30;;;18.01;62.53;100987.03;5048110;29;20590;-69
2022/06/21 05:44:14;;;;;;;4.38;2.30;;;17.50;98.70;;;18.13;61.59;100984.50;5048126;29;20063;-67
2022/06/21 05:46:49;;;;;;;4.38;2.15;;;17.70;98.40;;;18.28;61.28;100990.72;5047764;29;20237;-67
2022/06/21 05:49:24;;;;;;;3.08;1.75;;;17.80;97.90;;;18.35;60.42;100989.91;5040456;29;20045;-71
2022/06/21 05:52:00;;;;;;;3.90;2.35;;;17.80;97.40;;;18.42;60.57;101002.25;5047606;29;20081;-70
2022/06/21 05:54:36;;;;;;;3.70;2.17;;;17.90;97.40;;;18.61;59.56;100990.94;5047936;29;20057;-71
2022/06/21 05:57:16;;;;;;;5.57;2.50;;;18.10;96.90;;;18.82;59.04;100991.94;5047729;29;20049;-70
2022/06/21 05:59:48;;;;;;;4.00;2.22;;;18.20;96.50;;;19.05;58.78;100984.97;5047964;29;20060;-71
2022/06/21 06:02:30;;;;;;;2.97;1.90;;;18.50;96.50;;;19.20;58.15;100973.56;5047561;29;20067;-70
2022/06/21 06:05:11;;;;;;;4.10;2.10;;;18.60;96.20;;;19.32;58.00;100994.75;5047903;29;20495;-71
2022/06/21 06:07:46;;;;;;;;;;;18.80;95.70;;;19.43;57.54;100984.16;5048222;29;20057;-71
2022/06/21 06:10:20;;;;;;;3.15;1.75;;;18.80;95.30;;;19.42;56.51;100988.56;5047477;29;19923;-71
2022/06/21 06:12:57;;;;;;;;;;;18.90;94.60;;;19.40;55.67;100979.75;5048119;29;20076;-69
2022/06/21 06:15:34;;;;;;;2.55;1.98;;;18.90;94.00;;;19.51;55.86;100985.97;5047551;29;19926;-70
2022/06/21 06:18:18;;;;;;;3.33;1.90;;;18.90;94.00;;;19.72;55.31;100989.53;5047600;29;20053;-69
2022/06/21 06:20:58;;;;;;;2.88;1.75;;;19.10;93.60;;;19.88;54.66;100990.41;5047266;29;20053;-73
2022/06/21 06:23:38;;;;;;;4.60;2.00;;;19.20;93.20;;;20.03;54.13;100988.66;5047604;29;20053;-71
2022/06/21 06:26:15;;;;;;;3.90;1.80;;;19.40;92.70;;;20.25;54.02;100989.50;5047352;29;20058;-69
2022/06/21 06:28:56;;;;;;;5.05;1.88;;;19.60;92.70;;;20.40;52.34;100995.63;5047421;29;20063;-73
2022/06/21 06:31:33;;;;;;;3.53;1.80;;;19.70;91.40;;;20.44;51.96;100986.81;5047248;29;20053;-69
2022/06/21 06:34:08;;;;;;;2.35;1.60;;;19.80;90.90;;;20.67;52.93;100985.03;5047377;29;20422;-71
2022/06/21 06:36:45;;;;;;;3.45;1.80;;;20.00;91.50;;;20.97;52.36;100983.97;5044208;29;20063;-72
2022/06/21 06:39:23;;;;;;;3.33;1.80;;;20.20;91.30;;;21.16;51.82;100984.78;5032373;29;20069;-70
2022/06/21 06:42:01;;;;;;;3.20;1.92;;;20.40;90.80;;;21.23;51.90;100986.50;5028239;29;20053;-72
2022/06/21 06:44:39;;;;;;;3.90;1.80;;;20.50;90.70;;;21.27;51.41;100964.41;5032181;29;20525;-70
2022/06/21 06:47:16;;;;;;;3.25;1.80;;;20.60;90.30;;;21.30;51.59;100961.75;5043371;29;20053;-71
2022/06/21 06:49:53;;;;;;;4.20;2.10;;;20.60;90.40;;;21.39;51.42;100955.50;5040335;29;20409;-70
2022/06/21 06:52:31;;;;;;;3.33;1.83;;;20.70;89.80;;;21.52;51.16;100956.31;5042949;29;20399;-69
2022/06/21 06:55:11;;;;;;;2.85;1.70;;;20.80;89.10;;;21.64;50.35;100956.19;5039164;29;20049;-71
2022/06/21 06:57:48;;;;;;;2.75;1.88;;;21.00;87.80;;;21.80;50.04;100963.13;5032679;29;20067;-72
2022/06/21 07:00:29;;;;;;;5.45;1.73;;;21.10;87.20;;;21.73;48.71;100966.75;5037722;29;20049;-70
2022/06/21 07:03:06;;;;;;;6.35;2.03;;;21.10;84.70;;;21.85;48.30;100971.94;5027886;29;20057;-70
2022/06/21 07:05:45;;;;;;;3.92;1.65;;;21.20;83.90;;;21.94;48.12;100987.78;5027354;29;20064;-69
2022/06/21 07:08:28;;;;;;;3.15;1.73;;;21.30;83.30;;;22.25;47.62;100991.97;5027492;29;20064;-71
2022/06/21 07:11:04;;;;;;;3.67;1.65;;;21.50;82.50;;;22.53;46.77;100993.41;5027638;29;20483;-71
2022/06/21 07:13:37;;;;;;;5.90;1.90;;;21.70;81.30;;;22.75;46.74;100991.38;5027728;29;20065;-71
2022/06/21 07:16:15;;;;;;;1.83;1.42;;;21.90;81.20;;;22.96;46.39;100980.53;5027265;29;20491;-69
2022/06/21 07:18:51;;;;;;;2.28;1.42;;;22.10;80.40;;;23.09;45.41;100983.91;5027527;29;20053;-71
2022/06/21 07:21:25;;;;;;;6.03;1.60;;;22.20;78.90;;;22.95;44.93;100976.13;5027785;29;20652;-70
2022/06/21 07:23:59;;;;;;;2.30;1.48;;;22.20;77.80;;;23.01;45.55;100970.69;5027689;29;20156;-60
2022/06/21 07:26:34;;;;;;;;;;;22.30;77.70;;;22.97;45.11;100984.06;5027782;29;20059;-58
2022/06/21 07:29:13;;;;;;;2.90;1.50;;;22.30;76.70;;;23.00;45.13;100984.88;5027339;29;20361;-59
2022/06/21 07:31:50;;;;;;;2.38;1.30;;;22.30;76.60;;;23.02;45.39;100983.09;5027335;29;20408;-58
2022/06/21 07:34:31;;;;;;;2.80;1.23;;;22.20;76.80;;;22.99;45.83;100980.47;5027435;29;20049;-58
2022/06/21 07:37:07;;;;;;;3.05;1.60;;;22.20;77.70;;;23.03;45.97;100983.97;5027213;29;20050;-58
2022/06/21 07:39:45;;;;;;;2.95;1.30;;;22.20;77.40;;;23.04;44.61;100979.53;5027409;29;20085;-58
2022/06/21 07:42:23;;;;;;;3.58;1.80;;;22.20;75.80;;;22.99;45.32;100977.81;5027250;29;20129;-58
2022/06/21 07:45:01;;;;;;;2.88;1.65;;;22.20;76.20;;;22.93;45.37;100982.34;5031752;29;20068;-58
2022/06/21 07:47:41;;;;;;;2.50;1.38;;;22.20;76.00;;;22.79;45.41;100977.16;5034804;29;20058;-58
2022/06/21 07:50:26;;;;;;;2.55;1.40;;;22.10;76.20;;;22.87;45.25;100983.28;5027288;29;20049;-58
2022/06/21 07:53:08;;;;;;;3.20;1.73;;;22.10;76.00;;;23.04;45.04;100969.78;5027441;29;20407;-71
2022/06/21 07:55:45;;;;;;;3.20;1.77;;;22.20;76.00;;;23.26;44.59;100973.88;5035320;29;20068;-73
2022/06/21 07:58:24;;;;;;;4.97;1.25;;;22.30;75.30;;;23.59;43.82;100965.41;5040445;29;20052;-68
2022/06/21 08:06:57;;;;;;;1.65;1.40;;;22.90;72.60;;;24.40;42.10;100962.28;5032436;29;20068;-63
2022/06/21 08:09:40;;;;;;;3.50;1.10;;;23.00;72.80;;;24.57;41.70;100959.25;5049802;29;20049;-64
2022/06/21 08:12:14;;;;;;;2.67;1.35;;;23.10;72.10;;;24.72;41.46;100942.97;5040815;29;20068;-68
2022/06/21 08:14:47;;;;;;;3.92;1.88;;;23.20;71.90;;;24.64;40.80;100943.09;5030552;29;20057;-65
2022/06/21 08:17:28;;;;;;;1.90;1.30;;;23.20;70.70;;;24.97;40.69;100931.75;5029591;29;20057;-67
2022/06/21 08:20:08;;;;;;;3.75;1.58;;;23.30;70.90;;;25.31;40.18;100923.91;5030296;29;20059;-66
2022/06/21 08:22:48;;;;;;;3.90;1.45;;;23.50;70.60;;;25.60;39.83;100913.38;5030700;29;20053;-64
2022/06/21 08:25:27;;;;;;;2.58;1.40;;;23.60;70.40;;;26.46;38.33;100903.06;5030207;29;20057;-64
2022/06/21 08:28:04;;;;;;;3.28;1.30;;;24.00;69.70;;;27.59;36.72;100907.59;5030529;29;20061;-65
2022/06/21 08:30:45;;;;;;;2.75;1.10;;;24.50;68.60;;;28.73;34.34;100902.59;5030198;29;22035;-61
2022/06/21 08:33:24;;;;;;;3.75;1.42;;;25.20;66.50;;;29.38;32.45;100901.78;5030435;29;20140;-62
2022/06/21 08:36:02;;;;;;;2.15;1.20;;;25.70;63.70;;;28.93;32.85;100889.28;5029832;29;20482;-62
2022/06/21 08:38:40;;;;;;;1.80;1.10;;;25.70;62.70;;;29.17;32.34;100900.84;5030173;29;20054;-64
2022/06/21 08:41:56;;;;;;;2.83;1.05;;;25.90;62.30;;;30.05;30.79;100913.28;5030044;29;20053;-62
2022/06/21 08:45:41;;;;;;;2.53;1.20;;;26.50;60.60;;;31.62;28.67;100892.38;5030140;29;20061;-66
2022/06/21 08:48:59;;;;;;;2.22;1.20;;;27.60;58.10;;;32.23;27.89;100883.81;5028949;29;20057;-65
2022/06/21 08:52:38;;;;;;;1.88;1.08;;;28.40;56.40;;;32.44;27.26;100865.63;5041072;29;20144;-65
2022/06/21 08:55:23;;;;;;;4.65;1.10;;;28.80;55.00;;;32.63;26.02;100844.75;4989054;29;20608;-64
2022/06/21 08:58:14;;;;;;;1.92;1.02;;;29.10;53.40;;;32.96;25.82;100851.06;5031264;29;20060;-66
2022/06/21 09:00:57;;;;;;;1.83;1.05;;;29.40;52.50;;;32.96;25.96;100846.53;5046558;29;20477;-65
2022/06/21 09:04:03;;;;;;;2.22;1.23;;;29.60;52.20;;;32.07;26.69;100837.91;5047557;29;20144;-67
2022/06/21 09:06:51;;;;;;;3.00;0.90;;;29.30;52.20;;;31.97;27.97;100822.34;5044631;29;20108;-67
2022/06/21 09:09:42;;;;;;;2.35;1.00;;;29.10;53.50;;;31.99;27.86;100821.28;5049196;29;20061;-68
2022/06/21 09:12:26;;;;;;;1.65;1.00;;;29.10;53.60;;;32.06;27.53;100822.69;5040628;29;20045;-72
2022/06/21 09:15:41;;;;;;;2.03;1.00;;;29.00;53.10;;;32.07;27.10;100823.56;5044548;29;20064;-76
2022/06/21 09:18:33;;;;;;;1.67;1.17;;;29.10;52.60;;;31.03;27.59;100827.09;5036836;29;20060;-71
2022/06/21 09:21:10;;;;;;;2.45;1.10;;;28.60;51.70;;;30.95;27.44;100821.22;5036590;29;20126;-75
2022/06/21 09:23:59;;;;;;;1.20;1.10;;;28.40;51.70;;;30.56;27.75;100823.16;5029407;29;20495;-74
2022/06/21 09:26:45;;;;;;;1.67;1.02;;;28.30;51.60;;;29.81;28.72;100834.66;5028967;29;20060;-67
2022/06/21 09:29:29;;;;;;;3.03;1.10;;;27.80;52.00;;;29.23;29.40;100829.94;5029183;29;20149;-68
2022/06/21 09:32:19;;;;;;;1.15;1.05;;;27.50;52.80;;;29.25;30.32;100825.38;5029050;29;20053;-65
2022/06/21 09:35:06;;;;;;;1.75;1.00;;;27.40;53.80;;;29.28;31.29;100822.59;5029042;29;20159;-67
2022/06/21 09:37:56;;;;;;;1.27;1.00;;;27.40;55.10;;;29.02;31.12;100828.16;5029413;29;20053;-68
2022/06/21 09:40:33;;;;;;;3.83;1.40;;;27.40;54.50;;;28.50;30.74;100820.38;5029398;29;20522;-65
2022/06/21 09:43:22;;;;;;;1.23;1.10;;;27.10;53.40;;;27.77;30.67;100825.75;5029223;29;20057;-66
2022/06/21 09:46:08;;;;;;;2.75;1.20;;;26.70;52.80;;;27.01;31.46;100834.53;5028810;29;20057;-66
2022/06/21 09:48:53;;;;;;;1.23;1.13;;;26.20;53.00;;;26.20;31.91;100829.84;5028676;29;20089;-68
2022/06/21 09:51:37;;;;;;;1.23;1.02;;;25.60;52.60;;;25.77;33.20;100840.00;5028711;29;20053;-65
2022/06/21 09:54:33;;;;;;;1.92;0.98;;;25.20;54.20;;;25.47;33.20;100847.00;5042132;29;20097;-69
2022/06/21 09:57:24;;;;;;;1.80;0.90;;;24.90;54.30;;;25.25;34.01;100844.00;5046488;29;20141;-68
2022/06/21 10:00:05;;;;;;;1.90;0.90;;;24.60;55.30;;;25.37;34.06;100849.03;5047937;29;20049;-68
2022/06/21 10:02:56;;;;;;;1.63;0.90;;;24.60;55.60;;;25.47;34.37;100860.34;5047809;29;20053;-68
2022/06/21 10:05:36;;;;;;;1.33;0.80;;;24.60;56.00;;;25.33;33.62;100855.34;5047687;29;20049;-67
2022/06/21 10:08:23;;;;;;;1.35;0.90;;;24.50;55.20;;;25.10;33.40;100850.56;5047971;29;20053;-68
2022/06/21 10:11:08;;;;;;;1.13;1.00;;;24.40;54.50;;;24.80;34.25;100845.03;5047719;29;20055;-71
2022/06/21 10:14:17;;;;;;;1.52;1.10;;;24.20;55.10;;;24.61;34.77;100841.91;5048146;29;20052;-70
2022/06/21 10:17:33;;;;;;;1.60;1.00;;;24.00;55.70;;;24.55;35.20;100839.38;5046743;29;20056;-70
2022/06/21 10:20:26;;;;;;;1.77;0.90;;;23.90;56.60;;;24.54;35.64;100829.63;5021384;29;20492;-69
2022/06/21 10:23:16;;;;;;;1.75;1.00;;;23.90;57.70;;;24.50;36.46;100837.72;5047683;29;20491;-69
2022/06/21 10:25:57;;;;;;;1.55;1.00;;;23.80;57.70;;;24.46;36.57;100825.41;5047207;29;20063;-70
2022/06/21 10:29:29;;;;;;;1.30;1.08;;;23.70;58.00;;;24.37;36.36;100805.13;5047574;29;20061;-69
2022/06/21 10:32:32;;;;;;;2.97;1.27;;;23.70;57.90;;;24.30;36.61;100817.69;5019996;29;20057;-69
2022/06/21 10:35:28;;;;;;;1.63;1.00;;;23.60;58.00;;;24.27;36.62;100823.09;5047709;29;20109;-70
2022/06/21 10:38:45;;;;;;;2.80;1.10;;;23.60;58.40;;;24.22;36.60;100818.75;5047502;29;20490;-69
2022/06/21 10:44:58;;;;;;;2.58;1.20;;;23.60;58.40;;;24.09;37.04;100821.66;5046064;29;20104;-70
2022/06/21 10:47:52;;;;;;;1.63;1.10;;;23.50;58.50;;;23.96;37.25;100809.53;5047021;29;20052;-70
2022/06/21 10:50:39;;;;;;;1.75;1.17;;;23.40;58.50;;;23.87;37.74;100816.81;5046976;29;20053;-68
2022/06/21 10:53:41;;;;;;;;;;;23.40;58.90;;;23.68;37.66;100818.97;5047338;29;20045;-68
2022/06/21 11:01:17;;;;;;;2.47;1.50;;;23.20;59.50;;;23.56;37.97;100804.94;5047094;29;20052;-71
2022/06/21 11:02:50;;;;;;;3.13;1.40;;;23.10;59.00;;;23.60;38.33;100808.41;5046563;29;20063;-69
2022/06/21 11:05:35;;;;;;;1.40;1.13;;;23.10;59.80;;;23.58;38.35;100790.72;5155548;23;20124;-83
2022/06/21 11:08:21;;;;;;;2.13;1.30;;;23.10;59.70;;;23.70;38.67;100796.72;5059211;29;20104;-81
2022/06/21 11:11:02;;;;;;;3.58;1.30;;;23.10;60.30;;;23.84;38.42;100796.44;5058643;29;20057;-82
2022/06/21 11:13:40;;;;;;;1.30;1.02;;;23.20;60.20;;;23.96;38.51;100777.56;5051162;29;20515;-81
2022/06/21 11:16:19;;;;;;;1.98;0.93;;;23.40;60.30;;;24.30;38.78;100771.53;5050735;29;20060;-82
2022/06/21 11:19:01;;;;;;;4.80;1.40;;;23.50;60.90;;;24.49;37.73;100766.69;5051628;29;20056;-84
2022/06/21 11:21:49;;;;;;;1.13;1.00;;;23.70;59.70;;;24.82;38.43;100760.56;5052188;29;20121;-83
2022/06/21 11:24:39;;;;;;;3.20;1.27;;;23.90;60.50;;;25.23;38.08;100760.47;5051085;29;20053;-83
2022/06/21 11:27:20;;;;;;;2.50;1.10;;;24.30;60.50;;;25.59;37.83;100751.47;5067792;29;20080;-83